Time;durP1;ratioP1;P1;durP2;ratioP2;P2;SDS_P1;SDS_P2;PMS_P1;PMS_P2;Temp;Humidity;BMP_temperature;BMP_pressure;BME280_temperature;BME280_humidity;BME280_pressure;Samples;Min_cycle;Max_cycle;Signal;HPM_P1;HPM_P2
2021/08/21 00:00:52;;;;;;;28.15;21.77;;;;;;;;;;5113039;28;20020;-62
2021/08/21 00:03:17;;;;;;;29.55;22.10;;;;;;;;;;5111663;28;20015;-60
2021/08/21 00:05:43;;;;;;;27.80;22.20;;;;;;;;;;5110873;28;20036;-61
2021/08/21 00:08:09;;;;;;;27.63;22.00;;;;;;;;;;5111943;28;20016;-62
2021/08/21 00:10:38;;;;;;;28.30;21.02;;;;;;;;;;5111536;28;20073;-62
2021/08/21 00:13:04;;;;;;;27.80;22.20;;;;;;;;;;5112726;28;20023;-62
2021/08/21 00:15:33;;;;;;;28.80;23.80;;;;;;;;;;5112279;28;20031;-62
2021/08/21 00:17:59;;;;;;;29.77;21.95;;;;;;;;;;5113087;28;20439;-62
2021/08/21 00:20:25;;;;;;;29.98;23.48;;;;;;;;;;5112889;28;20027;-61
2021/08/21 00:22:51;;;;;;;30.50;23.67;;;;;;;;;;5112724;28;20092;-63
2021/08/21 00:25:17;;;;;;;33.33;23.73;;;;;;;;;;5112046;28;20424;-60
2021/08/21 00:27:43;;;;;;;29.13;23.70;;;;;;;;;;5112558;28;20023;-62
2021/08/21 00:30:10;;;;;;;28.88;22.75;;;;;;;;;;5111162;28;20020;-61
2021/08/21 00:32:37;;;;;;;31.17;23.67;;;;;;;;;;5111164;28;20016;-61
2021/08/21 00:35:03;;;;;;;30.02;22.80;;;;;;;;;;5112396;28;20076;-62
2021/08/21 00:37:29;;;;;;;27.45;22.45;;;;;;;;;;5114681;28;20039;-62
2021/08/21 00:39:55;;;;;;;30.45;24.25;;;;;;;;;;5116874;28;20034;-61
2021/08/21 00:42:21;;;;;;;33.60;25.35;;;;;;;;;;5116549;28;20027;-63
2021/08/21 00:44:47;;;;;;;30.80;24.02;;;;;;;;;;5115157;28;20024;-63
2021/08/21 00:47:20;;;;;;;31.02;24.45;;;;;;;;;;5114529;28;20020;-62
2021/08/21 00:49:47;;;;;;;31.70;25.90;;;;;;;;;;5115155;28;20069;-60
2021/08/21 00:52:18;;;;;;;31.27;24.25;;;;;;;;;;5115175;28;20037;-62
2021/08/21 00:54:45;;;;;;;33.65;24.92;;;;;;;;;;5116337;28;20038;-62
2021/08/21 00:57:17;;;;;;;33.95;24.80;;;;;;;;;;5115860;28;20035;-60
2021/08/21 00:59:44;;;;;;;31.85;25.58;;;;;;;;;;5116351;28;20068;-63
2021/08/21 01:02:11;;;;;;;31.75;25.73;;;;;;;;;;5115041;28;20111;-61
2021/08/21 01:04:41;;;;;;;32.63;24.48;;;;;;;;;;5116034;28;20409;-62
2021/08/21 01:07:07;;;;;;;32.47;25.13;;;;;;;;;;5115554;28;20020;-61
2021/08/21 01:09:36;;;;;;;32.13;24.85;;;;;;;;;;5116153;28;20034;-62
2021/08/21 01:12:02;;;;;;;33.03;24.48;;;;;;;;;;5116171;28;20024;-61
2021/08/21 01:14:28;;;;;;;31.63;24.77;;;;;;;;;;5115924;28;20027;-63
2021/08/21 01:16:54;;;;;;;31.77;25.42;;;;;;;;;;5114052;28;20081;-63
2021/08/21 01:19:22;;;;;;;30.73;24.90;;;;;;;;;;5115712;28;20449;-61
2021/08/21 01:21:48;;;;;;;31.65;25.52;;;;;;;;;;5115200;28;20034;-61
2021/08/21 01:24:14;;;;;;;31.45;24.20;;;;;;;;;;5113947;28;20031;-61
2021/08/21 01:27:09;;;;;;;31.73;24.55;;;;;;;;;;5114953;28;20094;-62
2021/08/21 01:29:37;;;;;;;31.67;24.35;;;;;;;;;;5101264;28;20030;-62
2021/08/21 01:32:03;;;;;;;30.27;24.65;;;;;;;;;;5115548;28;20031;-63
2021/08/21 01:34:29;;;;;;;34.17;26.05;;;;;;;;;;5115446;28;20061;-60
2021/08/21 01:36:57;;;;;;;33.13;25.13;;;;;;;;;;5114727;28;20027;-59
2021/08/21 01:39:23;;;;;;;34.92;25.70;;;;;;;;;;5115411;28;20406;-62
2021/08/21 01:41:49;;;;;;;32.53;26.00;;;;;;;;;;5115284;28;20027;-61
2021/08/21 01:44:16;;;;;;;33.58;27.33;;;;;;;;;;5115143;28;20476;-61
2021/08/21 01:46:46;;;;;;;33.03;26.05;;;;;;;;;;5113359;28;20049;-63
2021/08/21 01:49:12;;;;;;;32.25;25.63;;;;;;;;;;5114897;28;20020;-62
2021/08/21 01:51:42;;;;;;;34.47;25.35;;;;;;;;;;5115482;28;20019;-61
2021/08/21 01:54:14;;;;;;;33.47;25.48;;;;;;;;;;5115463;28;20056;-63
2021/08/21 01:56:44;;;;;;;33.60;26.73;;;;;;;;;;5114568;28;20034;-62
2021/08/21 01:59:17;;;;;;;35.85;27.98;;;;;;;;;;5115221;28;20027;-62
2021/08/21 02:01:43;;;;;;;35.03;27.48;;;;;;;;;;5115298;28;20491;-61
2021/08/21 02:04:09;;;;;;;36.90;27.75;;;;;;;;;;5113764;28;20024;-63
2021/08/21 02:06:35;;;;;;;34.33;25.80;;;;;;;;;;5114389;28;20020;-62
2021/08/21 02:09:01;;;;;;;35.00;26.67;;;;;;;;;;5114945;28;20144;-61
2021/08/21 02:11:27;;;;;;;34.88;27.88;;;;;;;;;;5115002;28;20023;-61
2021/08/21 02:13:53;;;;;;;34.40;27.48;;;;;;;;;;5113840;28;20032;-60
2021/08/21 02:16:19;;;;;;;35.30;26.65;;;;;;;;;;5114277;28;20471;-61
2021/08/21 02:18:45;;;;;;;35.05;27.73;;;;;;;;;;5114319;28;20055;-62
2021/08/21 02:21:12;;;;;;;34.80;26.27;;;;;;;;;;5114296;28;20077;-62
2021/08/21 02:23:38;;;;;;;33.35;26.83;;;;;;;;;;5114853;28;20047;-62
2021/08/21 02:26:05;;;;;;;35.97;25.95;;;;;;;;;;5113945;28;20019;-62
2021/08/21 02:28:31;;;;;;;35.10;24.45;;;;;;;;;;5113507;28;20072;-62
2021/08/21 02:30:57;;;;;;;32.22;25.42;;;;;;;;;;5114535;28;20024;-61
2021/08/21 02:33:23;;;;;;;34.38;26.38;;;;;;;;;;5114278;28;20023;-61
2021/08/21 02:35:49;;;;;;;33.15;25.95;;;;;;;;;;5112579;28;20058;-61
2021/08/21 02:38:15;;;;;;;34.63;26.10;;;;;;;;;;5114287;28;20063;-61
2021/08/21 02:40:41;;;;;;;34.08;25.65;;;;;;;;;;5114300;28;20027;-62
2021/08/21 02:43:09;;;;;;;35.33;26.45;;;;;;;;;;5113969;28;20404;-62
2021/08/21 02:45:35;;;;;;;35.70;27.70;;;;;;;;;;5113470;28;20023;-61
2021/08/21 02:48:01;;;;;;;37.38;29.10;;;;;;;;;;5114447;28;20046;-60
2021/08/21 02:50:27;;;;;;;36.80;28.20;;;;;;;;;;5112911;28;20024;-60
2021/08/21 02:52:53;;;;;;;36.63;27.75;;;;;;;;;;5112656;28;20020;-60
2021/08/21 02:55:19;;;;;;;37.60;28.10;;;;;;;;;;5112221;28;20437;-59
2021/08/21 02:57:45;;;;;;;33.22;26.38;;;;;;;;;;5113057;28;20122;-62
2021/08/21 03:00:11;;;;;;;34.67;26.90;;;;;;;;;;5112669;28;20065;-62
2021/08/21 03:02:37;;;;;;;37.15;27.80;;;;;;;;;;5113022;28;20024;-62
2021/08/21 03:05:04;;;;;;;36.05;26.90;;;;;;;;;;5113717;28;20020;-62
2021/08/21 03:07:31;;;;;;;37.05;27.90;;;;;;;;;;5113079;28;20539;-61
2021/08/21 03:09:56;;;;;;;33.92;26.15;;;;;;;;;;5113891;28;20058;-62
2021/08/21 03:12:22;;;;;;;34.88;27.10;;;;;;;;;;5113524;28;20055;-60
2021/08/21 03:14:48;;;;;;;34.92;27.77;;;;;;;;;;5113978;28;20020;-61
2021/08/21 03:17:14;;;;;;;37.63;28.42;;;;;;;;;;5112022;28;20483;-62
2021/08/21 03:19:42;;;;;;;36.83;28.40;;;;;;;;;;5113760;28;20060;-62
2021/08/21 03:22:08;;;;;;;36.80;27.03;;;;;;;;;;5113636;28;20107;-61
2021/08/21 03:24:34;;;;;;;33.22;26.55;;;;;;;;;;5112308;28;20538;-62
2021/08/21 03:27:00;;;;;;;36.13;27.63;;;;;;;;;;5111344;28;20028;-62
2021/08/21 03:29:26;;;;;;;36.78;26.88;;;;;;;;;;5113247;28;20026;-62
2021/08/21 03:31:52;;;;;;;39.45;27.00;;;;;;;;;;5113157;28;20023;-62
2021/08/21 03:34:22;;;;;;;40.78;28.02;;;;;;;;;;5113374;28;20473;-60
2021/08/21 03:36:48;;;;;;;38.95;28.67;;;;;;;;;;5112658;28;20015;-62
2021/08/21 03:39:14;;;;;;;40.30;29.70;;;;;;;;;;5113097;28;20051;-62
2021/08/21 03:41:40;;;;;;;37.95;28.52;;;;;;;;;;5112933;28;20059;-61
2021/08/21 03:44:06;;;;;;;37.90;27.33;;;;;;;;;;5112964;28;20024;-60
2021/08/21 03:46:32;;;;;;;38.83;27.45;;;;;;;;;;5112474;28;20059;-61
2021/08/21 03:48:58;;;;;;;38.47;27.92;;;;;;;;;;5113215;28;20023;-62
2021/08/21 03:51:24;;;;;;;40.47;27.52;;;;;;;;;;5113011;28;20034;-59
2021/08/21 03:53:50;;;;;;;39.38;27.85;;;;;;;;;;5112837;28;20026;-61
2021/08/21 03:56:16;;;;;;;37.65;28.67;;;;;;;;;;5110744;28;20444;-61
2021/08/21 03:58:42;;;;;;;37.58;28.25;;;;;;;;;;5112875;28;20035;-62
2021/08/21 04:01:08;;;;;;;39.05;28.40;;;;;;;;;;5112771;28;20016;-61
2021/08/21 04:03:34;;;;;;;38.80;29.10;;;;;;;;;;5112905;28;20671;-62
2021/08/21 04:05:59;;;;;;;41.55;28.85;;;;;;;;;;5112101;28;20028;-62
2021/08/21 04:08:25;;;;;;;40.90;29.70;;;;;;;;;;5112851;28;20046;-62
2021/08/21 04:10:51;;;;;;;38.50;28.48;;;;;;;;;;5112645;28;20019;-61
2021/08/21 04:13:17;;;;;;;38.50;29.27;;;;;;;;;;5111405;28;20387;-62
2021/08/21 04:15:43;;;;;;;38.30;27.75;;;;;;;;;;5111938;28;20034;-62
2021/08/21 04:18:09;;;;;;;40.08;28.30;;;;;;;;;;5112560;28;20036;-62
2021/08/21 04:20:35;;;;;;;39.42;29.17;;;;;;;;;;5111309;28;20028;-62
2021/08/21 04:23:01;;;;;;;38.35;29.40;;;;;;;;;;5111232;28;20069;-61
2021/08/21 04:25:27;;;;;;;41.17;29.50;;;;;;;;;;5110579;28;20391;-60
2021/08/21 04:27:54;;;;;;;45.70;30.08;;;;;;;;;;5112169;28;20111;-61
2021/08/21 04:30:20;;;;;;;42.85;28.92;;;;;;;;;;5112628;28;20072;-62
2021/08/21 04:32:46;;;;;;;44.53;30.42;;;;;;;;;;5111253;28;20020;-61
2021/08/21 04:35:12;;;;;;;39.83;29.50;;;;;;;;;;5111101;28;20110;-62
2021/08/21 04:37:38;;;;;;;44.70;30.95;;;;;;;;;;5111377;28;20066;-60
2021/08/21 04:40:05;;;;;;;36.60;28.88;;;;;;;;;;5112601;28;20028;-61
2021/08/21 04:42:31;;;;;;;41.70;28.88;;;;;;;;;;5112600;28;20036;-61
2021/08/21 04:44:59;;;;;;;39.58;28.55;;;;;;;;;;5110757;28;20035;-61
2021/08/21 04:47:26;;;;;;;37.30;26.35;;;;;;;;;;5097378;28;20027;-62
2021/08/21 04:49:52;;;;;;;39.42;28.52;;;;;;;;;;5106350;28;20024;-61
2021/08/21 04:52:18;;;;;;;38.15;27.92;;;;;;;;;;5112063;28;20077;-62
2021/08/21 04:54:44;;;;;;;40.45;28.90;;;;;;;;;;5111945;28;20099;-61
2021/08/21 04:57:10;;;;;;;39.50;29.90;;;;;;;;;;5093294;28;20047;-61
2021/08/21 04:59:36;;;;;;;37.00;27.83;;;;;;;;;;5112220;28;20038;-61
2021/08/21 05:02:02;;;;;;;41.20;28.85;;;;;;;;;;5112054;28;20028;-61
2021/08/21 05:04:28;;;;;;;35.88;27.40;;;;;;;;;;5112054;28;20510;-61
2021/08/21 05:06:54;;;;;;;37.05;28.77;;;;;;;;;;5111560;28;20027;-62
2021/08/21 05:09:20;;;;;;;36.70;28.75;;;;;;;;;;5093687;28;20023;-61
2021/08/21 05:11:46;;;;;;;38.33;28.33;;;;;;;;;;5093798;28;20020;-61
2021/08/21 05:14:12;;;;;;;34.55;27.33;;;;;;;;;;5112061;28;20106;-62
2021/08/21 05:16:42;;;;;;;36.95;28.98;;;;;;;;;;5093124;28;20508;-61
2021/08/21 05:19:13;;;;;;;38.78;29.00;;;;;;;;;;5111884;28;20024;-61
2021/08/21 05:21:48;;;;;;;36.40;28.80;;;;;;;;;;5111984;28;20510;-62
2021/08/21 05:24:14;;;;;;;35.75;28.50;;;;;;;;;;5113835;28;20027;-61
2021/08/21 05:26:40;;;;;;;35.50;26.20;;;;;;;;;;5115104;28;20110;-61
2021/08/21 05:29:06;;;;;;;34.55;25.85;;;;;;;;;;5116181;28;20019;-62
2021/08/21 05:31:32;;;;;;;36.30;26.50;;;;;;;;;;5115625;28;20096;-62
2021/08/21 05:33:58;;;;;;;38.22;27.63;;;;;;;;;;5115529;28;20098;-60
2021/08/21 05:36:25;;;;;;;35.75;25.60;;;;;;;;;;5114732;28;20027;-63
2021/08/21 05:38:51;;;;;;;33.75;25.83;;;;;;;;;;5115536;28;20080;-60
2021/08/21 05:41:18;;;;;;;31.67;25.92;;;;;;;;;;5115465;28;20135;-61
2021/08/21 05:43:44;;;;;;;33.58;25.02;;;;;;;;;;5115169;28;20059;-62
2021/08/21 05:46:10;;;;;;;30.48;23.55;;;;;;;;;;5114956;28;20020;-61
2021/08/21 05:48:35;;;;;;;30.83;24.35;;;;;;;;;;5116091;28;20031;-61
2021/08/21 05:51:01;;;;;;;33.95;26.60;;;;;;;;;;5115172;28;20019;-61
2021/08/21 05:53:27;;;;;;;32.38;26.63;;;;;;;;;;5114969;28;20433;-62
2021/08/21 05:55:53;;;;;;;33.72;26.92;;;;;;;;;;5114495;28;20032;-61
2021/08/21 05:58:19;;;;;;;32.70;26.75;;;;;;;;;;5114835;28;20027;-61
2021/08/21 06:00:46;;;;;;;31.77;26.75;;;;;;;;;;5115272;28;20029;-61
2021/08/21 06:03:12;;;;;;;33.33;26.88;;;;;;;;;;5097251;28;20032;-61
2021/08/21 06:05:41;;;;;;;30.90;24.80;;;;;;;;;;5114318;28;20084;-59
2021/08/21 06:08:07;;;;;;;33.72;26.35;;;;;;;;;;5114661;28;20051;-61
2021/08/21 06:10:33;;;;;;;32.17;24.10;;;;;;;;;;5114990;28;20024;-62
2021/08/21 06:12:59;;;;;;;31.13;25.52;;;;;;;;;;5096422;28;20027;-62
2021/08/21 06:15:25;;;;;;;33.92;26.77;;;;;;;;;;5114849;28;20031;-61
2021/08/21 06:17:51;;;;;;;34.67;27.25;;;;;;;;;;5115618;28;20072;-63
2021/08/21 06:20:17;;;;;;;30.35;24.27;;;;;;;;;;5115821;28;20024;-62
2021/08/21 06:22:43;;;;;;;32.53;25.45;;;;;;;;;;5114938;28;20043;-63
2021/08/21 06:25:10;;;;;;;30.30;24.17;;;;;;;;;;5114097;28;20051;-62
2021/08/21 06:27:36;;;;;;;32.55;27.60;;;;;;;;;;5096887;28;20016;-63
2021/08/21 06:30:03;;;;;;;30.80;23.83;;;;;;;;;;5115347;28;20484;-63
2021/08/21 06:32:29;;;;;;;33.72;25.90;;;;;;;;;;5114436;28;20494;-68
2021/08/21 06:34:55;;;;;;;32.42;25.73;;;;;;;;;;5114420;28;20028;-62
2021/08/21 06:37:21;;;;;;;37.88;26.90;;;;;;;;;;5095511;28;20094;-62
2021/08/21 06:39:47;;;;;;;32.38;24.75;;;;;;;;;;5096633;28;20429;-62
2021/08/21 06:44:56;;;;;;;33.10;25.48;;;;;;;;;;5091951;28;20040;-63
2021/08/21 06:47:22;;;;;;;35.38;27.45;;;;;;;;;;5093423;28;20446;-63
2021/08/21 06:49:48;;;;;;;34.70;26.95;;;;;;;;;;5093218;28;20024;-64
2021/08/21 06:52:14;;;;;;;34.13;27.75;;;;;;;;;;5092727;28;20020;-60
2021/08/21 06:54:40;;;;;;;33.42;25.80;;;;;;;;;;5093472;28;20059;-61
2021/08/21 06:57:06;;;;;;;34.58;28.20;;;;;;;;;;5093062;28;20020;-60
2021/08/21 06:59:32;;;;;;;32.28;25.50;;;;;;;;;;5091245;28;20061;-62
2021/08/21 07:01:58;;;;;;;31.70;25.83;;;;;;;;;;5093670;28;20020;-61
2021/08/21 07:04:24;;;;;;;34.47;25.38;;;;;;;;;;5093539;28;20028;-61
2021/08/21 07:06:50;;;;;;;35.38;28.00;;;;;;;;;;5091545;28;20094;-61
2021/08/21 07:09:16;;;;;;;41.55;25.60;;;;;;;;;;5093624;28;20032;-62
2021/08/21 07:11:42;;;;;;;36.58;27.40;;;;;;;;;;5093438;28;20103;-62
2021/08/21 07:14:08;;;;;;;36.38;26.33;;;;;;;;;;5092122;28;20024;-61
2021/08/21 07:16:34;;;;;;;32.30;25.95;;;;;;;;;;5092896;28;20028;-65
2021/08/21 07:19:00;;;;;;;33.10;26.60;;;;;;;;;;5093381;28;20035;-62
2021/08/21 07:21:26;;;;;;;39.83;28.42;;;;;;;;;;5093278;28;20048;-61
2021/08/21 07:23:52;;;;;;;35.08;26.40;;;;;;;;;;5091916;28;20028;-63
2021/08/21 07:26:18;;;;;;;37.97;27.67;;;;;;;;;;5092607;28;20039;-62
2021/08/21 07:28:44;;;;;;;33.83;26.90;;;;;;;;;;5093225;28;20028;-62
2021/08/21 07:31:10;;;;;;;35.05;28.27;;;;;;;;;;5091720;28;20031;-61
2021/08/21 07:33:36;;;;;;;34.33;27.70;;;;;;;;;;5093328;28;20020;-61
2021/08/21 07:36:02;;;;;;;37.10;29.45;;;;;;;;;;5091493;28;20115;-62
2021/08/21 07:38:28;;;;;;;33.75;27.55;;;;;;;;;;5093222;28;20028;-62
2021/08/21 07:40:55;;;;;;;35.97;27.23;;;;;;;;;;5092010;28;20031;-62
2021/08/21 07:43:20;;;;;;;34.75;27.88;;;;;;;;;;5090219;28;20135;-62
2021/08/21 07:45:47;;;;;;;34.28;28.80;;;;;;;;;;5090305;28;20107;-62
2021/08/21 07:48:13;;;;;;;37.65;29.58;;;;;;;;;;5092594;28;20021;-61
2021/08/21 07:50:39;;;;;;;36.88;28.60;;;;;;;;;;5091601;28;20020;-63
2021/08/21 07:53:05;;;;;;;32.10;26.17;;;;;;;;;;5092624;28;20070;-62
2021/08/21 07:55:31;;;;;;;31.17;25.73;;;;;;;;;;5091882;28;20479;-63
2021/08/21 07:57:57;;;;;;;34.10;27.20;;;;;;;;;;5091406;28;20118;-63
2021/08/21 08:00:23;;;;;;;38.45;28.27;;;;;;;;;;5092507;28;20075;-62
2021/08/21 08:02:49;;;;;;;34.15;26.85;;;;;;;;;;5092597;28;20028;-61
2021/08/21 08:05:15;;;;;;;33.40;26.95;;;;;;;;;;5091762;28;20392;-63
2021/08/21 08:07:41;;;;;;;33.60;27.40;;;;;;;;;;5091403;28;20114;-62
2021/08/21 08:10:08;;;;;;;31.55;25.20;;;;;;;;;;5091458;28;20034;-62
2021/08/21 08:12:34;;;;;;;34.20;26.02;;;;;;;;;;5091013;28;20383;-62
2021/08/21 08:15:00;;;;;;;34.22;25.98;;;;;;;;;;5092297;28;20379;-64
2021/08/21 08:17:26;;;;;;;30.27;24.77;;;;;;;;;;5091788;28;20103;-62
2021/08/21 08:19:52;;;;;;;30.02;24.85;;;;;;;;;;5092158;28;20484;-63
2021/08/21 08:22:19;;;;;;;33.13;26.30;;;;;;;;;;5092452;28;20043;-61
2021/08/21 08:24:46;;;;;;;32.03;25.08;;;;;;;;;;5092022;28;20077;-62
2021/08/21 08:27:13;;;;;;;32.17;25.80;;;;;;;;;;5091375;28;20028;-62
2021/08/21 08:29:39;;;;;;;34.05;24.30;;;;;;;;;;5092095;28;20061;-60
2021/08/21 08:32:05;;;;;;;30.20;25.35;;;;;;;;;;5092153;28;20429;-63
2021/08/21 08:34:31;;;;;;;31.98;26.08;;;;;;;;;;5091823;28;20556;-63
2021/08/21 08:36:57;;;;;;;33.97;25.60;;;;;;;;;;5089893;28;20055;-63
2021/08/21 08:39:23;;;;;;;29.95;24.23;;;;;;;;;;5090764;28;20028;-63
2021/08/21 08:41:51;;;;;;;29.52;24.98;;;;;;;;;;5091045;28;20034;-62
2021/08/21 08:44:17;;;;;;;29.50;25.33;;;;;;;;;;5091933;28;20056;-64
2021/08/21 08:46:44;;;;;;;30.77;25.35;;;;;;;;;;5091420;28;20117;-63
2021/08/21 08:49:10;;;;;;;32.20;26.77;;;;;;;;;;5090651;28;20142;-62
2021/08/21 08:51:36;;;;;;;30.48;24.83;;;;;;;;;;5091939;28;20024;-62
2021/08/21 08:54:02;;;;;;;31.80;25.08;;;;;;;;;;5090617;28;20016;-64
2021/08/21 08:56:28;;;;;;;31.58;23.55;;;;;;;;;;5090346;28;20115;-63
2021/08/21 08:58:55;;;;;;;29.40;25.10;;;;;;;;;;5093598;28;20048;-62
2021/08/21 09:01:21;;;;;;;26.88;23.20;;;;;;;;;;5095869;28;20075;-63
2021/08/21 09:03:47;;;;;;;24.58;21.50;;;;;;;;;;5094427;28;20028;-62
2021/08/21 09:06:14;;;;;;;26.50;22.17;;;;;;;;;;5094689;28;20036;-63
2021/08/21 09:08:40;;;;;;;28.27;24.38;;;;;;;;;;5095654;28;20476;-63
2021/08/21 09:11:20;;;;;;;28.48;23.58;;;;;;;;;;5095677;28;20023;-62
2021/08/21 09:13:46;;;;;;;27.42;23.13;;;;;;;;;;5095583;28;20074;-64
2021/08/21 09:16:12;;;;;;;28.58;23.75;;;;;;;;;;5095028;28;20028;-62
2021/08/21 09:18:38;;;;;;;29.05;24.73;;;;;;;;;;5094566;28;20035;-63
2021/08/21 09:21:05;;;;;;;28.55;21.65;;;;;;;;;;5094145;28;20080;-63
2021/08/21 09:23:35;;;;;;;31.08;23.88;;;;;;;;;;5095427;28;20101;-63
2021/08/21 09:26:36;;;;;;;28.88;21.42;;;;;;;;;;5094429;28;20450;-62
2021/08/21 09:29:03;;;;;;;27.10;22.15;;;;;;;;;;5094963;28;20020;-63
2021/08/21 09:31:30;;;;;;;27.65;23.45;;;;;;;;;;5095347;28;20022;-62
2021/08/21 09:34:01;;;;;;;27.52;22.30;;;;;;;;;;5093941;28;20020;-63
2021/08/21 09:36:47;;;;;;;26.23;22.58;;;;;;;;;;5093041;28;20111;-62
2021/08/21 09:39:14;;;;;;;27.35;22.38;;;;;;;;;;5093602;28;20106;-64
2021/08/21 09:41:57;;;;;;;29.75;22.02;;;;;;;;;;5092902;28;20024;-62
2021/08/21 09:44:30;;;;;;;27.90;23.88;;;;;;;;;;5093406;28;20028;-62
2021/08/21 09:47:12;;;;;;;27.02;22.45;;;;;;;;;;5093147;28;20446;-62
2021/08/21 09:49:38;;;;;;;27.67;22.10;;;;;;;;;;5095051;28;20476;-62
2021/08/21 09:52:06;;;;;;;26.63;22.15;;;;;;;;;;5095010;28;20082;-63
2021/08/21 09:54:32;;;;;;;26.13;21.67;;;;;;;;;;5095071;28;20036;-63
2021/08/21 09:56:58;;;;;;;26.45;22.25;;;;;;;;;;5093096;28;20028;-63
2021/08/21 09:59:38;;;;;;;29.45;21.75;;;;;;;;;;5093644;28;20020;-63
2021/08/21 10:02:08;;;;;;;23.85;19.55;;;;;;;;;;5094557;28;20024;-63
2021/08/21 10:04:34;;;;;;;22.40;18.50;;;;;;;;;;5094737;28;20593;-62
2021/08/21 10:07:04;;;;;;;24.63;20.15;;;;;;;;;;5093128;28;20024;-62
2021/08/21 10:09:31;;;;;;;24.80;21.40;;;;;;;;;;5094467;28;20013;-63
2021/08/21 10:11:57;;;;;;;25.52;21.55;;;;;;;;;;5094725;28;20044;-62
2021/08/21 10:14:24;;;;;;;25.45;22.02;;;;;;;;;;5093083;28;20032;-63
2021/08/21 10:16:50;;;;;;;23.85;21.25;;;;;;;;;;5092568;28;20396;-62
2021/08/21 10:19:22;;;;;;;25.65;21.38;;;;;;;;;;5094411;28;20025;-63
2021/08/21 10:21:55;;;;;;;26.20;22.15;;;;;;;;;;5094810;28;20058;-62
2021/08/21 10:24:34;;;;;;;24.45;20.77;;;;;;;;;;5094214;28;20032;-63
2021/08/21 10:27:12;;;;;;;26.73;21.15;;;;;;;;;;5092488;28;20056;-62
2021/08/21 10:29:38;;;;;;;22.88;20.42;;;;;;;;;;5093875;28;20104;-63
2021/08/21 10:32:05;;;;;;;25.30;20.83;;;;;;;;;;5094025;28;20646;-63
2021/08/21 10:34:49;;;;;;;25.45;21.23;;;;;;;;;;5093858;28;20028;-62
2021/08/21 10:37:30;;;;;;;28.35;20.48;;;;;;;;;;5093390;28;20028;-63
2021/08/21 10:39:56;;;;;;;23.15;20.65;;;;;;;;;;5094255;28;20089;-63
2021/08/21 10:42:34;;;;;;;23.63;20.98;;;;;;;;;;5092736;28;20028;-62
2021/08/21 10:45:00;;;;;;;22.98;20.23;;;;;;;;;;5093860;28;20024;-63
2021/08/21 10:47:33;;;;;;;24.67;20.40;;;;;;;;;;5092741;28;20494;-63
2021/08/21 10:50:22;;;;;;;24.70;21.02;;;;;;;;;;5092869;28;20055;-62
2021/08/21 10:52:50;;;;;;;23.63;20.88;;;;;;;;;;5093443;28;20092;-61
2021/08/21 10:55:21;;;;;;;23.35;20.92;;;;;;;;;;5085752;28;20032;-61
2021/08/21 10:57:57;;;;;;;23.60;21.05;;;;;;;;;;5084274;28;20028;-62
2021/08/21 11:00:38;;;;;;;24.30;21.40;;;;;;;;;;5083949;28;20024;-60
2021/08/21 11:03:31;;;;;;;27.58;24.50;;;;;;;;;;5092017;28;20164;-63
2021/08/21 11:06:03;;;;;;;23.83;21.33;;;;;;;;;;4720908;28;9999836;-62
2021/08/21 11:08:31;;;;;;;25.35;20.30;;;;;;;;;;5090462;28;20115;-62
2021/08/21 11:11:10;;;;;;;23.60;20.38;;;;;;;;;;5086585;28;20023;-60
2021/08/21 11:13:54;;;;;;;22.33;19.92;;;;;;;;;;5078869;28;20028;-61
2021/08/21 11:16:21;;;;;;;22.13;19.77;;;;;;;;;;5077450;28;20059;-62
2021/08/21 11:18:48;;;;;;;24.13;20.25;;;;;;;;;;5077630;28;20099;-62
2021/08/21 11:21:30;;;;;;;23.92;21.35;;;;;;;;;;5079282;28;20090;-61
2021/08/21 11:23:56;;;;;;;21.10;18.80;;;;;;;;;;5077564;28;20032;-63
2021/08/21 11:26:23;;;;;;;22.67;19.95;;;14.90;99.90;;;;;;5077144;28;20024;-62
2021/08/21 11:29:05;;;;;;;20.92;18.52;;;;;;;;;;5065310;28;20021;-63
2021/08/21 11:31:55;;;;;;;23.17;18.33;;;28.40;99.90;;;;;;5066318;28;20029;-62
2021/08/21 11:34:21;;;;;;;20.42;17.52;;;;;;;;;;5069833;28;20795;-62
2021/08/21 11:36:48;;;;;;;21.15;18.00;;;28.30;99.90;;;;;;5067793;28;20071;-61
2021/08/21 11:39:14;;;;;;;20.63;17.60;;;30.00;99.90;;;;;;5069301;28;20028;-64
2021/08/21 11:41:39;;;;;;;20.00;17.58;;;31.60;99.90;;;;;;5066448;28;20035;-62
2021/08/21 11:44:06;;;;;;;21.95;18.27;;;30.40;99.90;;;;;;5067644;28;20264;-61
2021/08/21 11:46:32;;;;;;;19.98;17.00;;;;;;;;;;5072929;28;20099;-60
2021/08/21 11:49:08;;;;;;;19.13;17.02;;;;;;;;;;5089284;28;20040;-62
2021/08/21 11:51:38;;;;;;;20.05;17.85;;;28.70;99.90;;;;;;5089329;28;20107;-61
2021/08/21 11:54:04;;;;;;;19.95;17.15;;;31.70;99.90;;;;;;5088979;28;20020;-61
2021/08/21 11:56:30;;;;;;;20.77;18.58;;;31.90;99.90;;;;;;5087880;28;20027;-61
2021/08/21 11:59:06;;;;;;;19.23;16.50;;;;;;;;;;5077687;28;20028;-63
2021/08/21 12:01:34;;;;;;;20.60;18.38;;;30.30;99.90;;;;;;5068321;28;20027;-61
2021/08/21 12:06:32;;;;;;;19.38;17.20;;;29.40;99.90;;;;;;5076726;28;20785;-63
2021/08/21 12:09:12;;;;;;;19.58;17.50;;;29.50;99.90;;;;;;5086161;28;20050;-60
2021/08/21 12:11:38;;;;;;;19.73;17.38;;;;;;;;;;5088790;28;20036;-61
2021/08/21 12:14:04;;;;;;;21.75;18.15;;;31.90;99.90;;;;;;5072048;28;20035;-61
2021/08/21 12:16:31;;;;;;;19.58;17.10;;;;;;;;;;5064532;28;20032;-59
2021/08/21 12:18:57;;;;;;;19.67;17.52;;;;;;;;;;5080124;28;20064;-61
2021/08/21 12:21:24;;;;;;;19.73;17.25;;;28.80;99.90;;;;;;5088197;28;20024;-61
2021/08/21 12:23:51;;;;;;;21.75;17.65;;;;;;;;;;5088442;28;20024;-62
2021/08/21 12:26:32;;;;;;;20.70;18.53;;;;;;;;;;5086910;28;20455;-62
2021/08/21 12:28:58;;;;;;;19.83;17.40;;;;;;;;;;5089376;28;20426;-60
2021/08/21 12:31:38;;;;;;;19.35;17.25;;;30.30;99.90;;;;;;5090433;28;20043;-61
2021/08/21 12:34:05;;;;;;;19.83;17.60;;;29.70;99.90;;;;;;5088502;28;20149;-60
2021/08/21 12:36:40;;;;;;;19.25;17.13;;;30.90;99.90;;;;;;5089791;28;20028;-61
2021/08/21 12:39:07;;;;;;;20.02;17.40;;;30.40;99.90;;;;;;5089545;28;20066;-60
2021/08/21 12:41:35;;;;;;;20.92;16.48;;;30.40;99.90;;;;;;5089860;28;20024;-61
2021/08/21 12:44:14;;;;;;;19.83;17.00;;;31.10;99.90;;;;;;5112838;22;20044;-62
2021/08/21 12:46:48;;;;;;;18.35;16.35;;;;;;;;;;5111093;28;20031;-62
2021/08/21 12:49:13;;;;;;;18.35;16.35;;;31.90;99.90;;;;;;5093096;28;20012;-60
2021/08/21 12:51:42;;;;;;;18.75;16.75;;;33.50;99.00;;;;;;5111195;28;20023;-62
2021/08/21 12:54:12;;;;;;;19.08;16.50;;;35.30;99.50;;;;;;5110877;28;20073;-62
2021/08/21 12:57:04;;;;;;;18.30;16.40;;;35.00;98.60;;;;;;5110438;28;20034;-62
2021/08/21 12:59:30;;;;;;;18.75;16.55;;;35.40;98.50;;;;;;5110879;28;20024;-62
2021/08/21 13:02:13;;;;;;;18.08;16.17;;;34.00;97.90;;;;;;5110510;28;20031;-61
2021/08/21 13:04:40;;;;;;;19.88;16.65;;;;;;;;;;5110625;28;20034;-61
2021/08/21 13:07:10;;;;;;;18.40;16.40;;;30.50;99.20;;;;;;5110072;28;20030;-61
2021/08/21 13:09:40;;;;;;;17.88;15.95;;;;;;;;;;5092414;28;20032;-61
2021/08/21 13:12:06;;;;;;;18.17;15.93;;;30.60;99.90;;;;;;5092383;28;20050;-62
2021/08/21 13:14:33;;;;;;;18.23;15.50;;;33.30;97.60;;;;;;5110437;28;20055;-61
2021/08/21 13:16:59;;;;;;;17.75;15.82;;;32.60;97.80;;;;;;5074627;28;20024;-62
2021/08/21 13:19:25;;;;;;;18.60;16.02;;;33.90;98.90;;;;;;5110676;28;20541;-63
2021/08/21 13:21:51;;;;;;;17.88;15.98;;;34.30;98.00;;;;;;5110768;28;20023;-63
2021/08/21 13:24:17;;;;;;;19.15;16.90;;;35.20;97.00;;;;;;5110652;28;20101;-62
2021/08/21 13:26:42;;;;;;;19.02;15.77;;;36.10;96.40;;;;;;5091857;28;20407;-62
2021/08/21 13:29:08;;;;;;;18.15;15.45;;;36.50;96.10;;;;;;5109152;28;20070;-62
2021/08/21 13:31:34;;;;;;;17.17;15.23;;;36.20;97.20;;;;;;5111131;28;20055;-63
2021/08/21 13:34:10;;;;;;;17.35;15.10;;;35.40;94.10;;;;;;5110756;28;20404;-61
2021/08/21 13:36:38;;;;;;;17.17;14.95;;;36.20;94.70;;;;;;5110061;28;20068;-62
2021/08/21 13:39:06;;;;;;;17.60;15.70;;;36.00;95.20;;;;;;5110595;28;20034;-62
2021/08/21 13:41:32;;;;;;;;;;;36.50;93.70;;;;;;5110948;28;20016;-61
2021/08/21 13:43:57;;;;;;;17.63;15.73;;;35.50;94.00;;;;;;5110387;28;20112;-60
2021/08/21 13:46:23;;;;;;;17.70;15.27;;;35.40;94.60;;;;;;5113571;28;20368;-63
2021/08/21 13:48:48;;;;;;;18.42;15.43;;;34.60;94.40;;;;;;5114309;28;20024;-62
2021/08/21 13:51:14;;;;;;;17.48;14.93;;;35.60;94.30;;;;;;5095759;28;20506;-61
2021/08/21 13:53:39;;;;;;;17.50;15.10;;;35.60;94.40;;;;;;5096185;28;20020;-64
2021/08/21 13:56:05;;;;;;;17.10;14.80;;;34.80;94.40;;;;;;5113276;28;20119;-63
2021/08/21 13:58:32;;;;;;;17.40;15.07;;;34.40;94.20;;;;;;5095820;28;20020;-62
2021/08/21 14:00:58;;;;;;;18.75;15.35;;;33.40;95.90;;;;;;5113862;28;20080;-63
2021/08/21 14:03:24;;;;;;;17.88;15.05;;;34.10;94.80;;;;;;5113953;28;20024;-62
2021/08/21 14:05:55;;;;;;;19.17;15.52;;;33.30;94.40;;;;;;4387648;28;9999989;-63
2021/08/21 14:08:22;;;;;;;17.70;15.20;;;;;;;;;;5090108;28;20024;-60